Time;durP1;ratioP1;P1;durP2;ratioP2;P2;SDS_P1;SDS_P2;PMS_P1;PMS_P2;Temp;Humidity;BMP_temperature;BMP_pressure;BME280_temperature;BME280_humidity;BME280_pressure;Samples;Min_cycle;Max_cycle;Signal;HPM_P1;HPM_P2
2023/08/17 00:02:12;;;;;;;;;;;21.10;71.00;;;;;;5112639;28;19920;-66
2023/08/17 00:04:38;;;;;;;;;;;21.20;71.10;;;;;;5112879;28;20369;-65
2023/08/17 00:07:03;;;;;;;;;;;21.20;71.10;;;;;;5112694;28;19945;-65
2023/08/17 00:09:29;;;;;;;;;;;21.20;71.10;;;;;;5094561;28;20011;-65
2023/08/17 00:11:54;;;;;;;;;;;21.20;71.10;;;;;;5094346;28;19923;-65
2023/08/17 00:14:20;;;;;;;;;;;21.20;71.10;;;;;;5094495;28;19978;-66
2023/08/17 00:16:46;;;;;;;;;;;21.20;71.10;;;;;;5113013;28;20011;-65
2023/08/17 00:19:11;;;;;;;;;;;21.10;71.00;;;;;;5094299;28;19923;-65
2023/08/17 00:21:37;;;;;;;;;;;21.20;71.80;;;;;;5112612;28;19920;-66
2023/08/17 00:24:03;;;;;;;;;;;21.20;71.10;;;;;;5094270;28;19927;-69
2023/08/17 00:26:29;;;;;;;;;;;21.20;71.10;;;;;;5094780;28;19923;-65
2023/08/17 00:28:54;;;;;;;;;;;21.10;71.10;;;;;;5128645;28;19928;-66
2023/08/17 00:31:20;;;;;;;;;;;21.10;71.10;;;;;;5112687;28;20378;-66
2023/08/17 00:33:45;;;;;;;;;;;21.10;71.10;;;;;;5112555;28;19919;-66
2023/08/17 00:36:11;;;;;;;;;;;21.20;71.10;;;;;;5112453;28;19919;-65
2023/08/17 00:38:36;;;;;;;;;;;21.10;71.10;;;;;;5112510;28;20006;-70
2023/08/17 00:41:02;;;;;;;;;;;21.10;71.10;;;;;;5094104;28;20397;-65
2023/08/17 00:43:27;;;;;;;;;;;21.10;71.10;;;;;;5094302;28;19967;-65
2023/08/17 00:45:53;;;;;;;;;;;21.10;71.10;;;;;;5094455;28;19927;-65
2023/08/17 00:48:18;;;;;;;;;;;21.10;71.10;;;;;;5128567;28;19926;-65
2023/08/17 00:50:47;;;;;;;;;;;21.10;71.10;;;;;;5128563;28;19924;-65
2023/08/17 00:53:13;;;;;;;;;;;21.10;71.10;;;;;;5094341;28;19920;-65
2023/08/17 00:55:39;;;;;;;;;;;21.10;71.10;;;;;;5112271;28;19927;-65
2023/08/17 00:58:04;;;;;;;;;;;21.10;71.10;;;;;;5112233;28;19939;-66
2023/08/17 01:00:31;;;;;;;;;;;21.10;71.10;;;;;;5089550;28;19924;-65
2023/08/17 01:02:56;;;;;;;;;;;21.10;71.10;;;;;;5091894;28;20285;-65
2023/08/17 01:05:23;;;;;;;;;;;21.10;71.10;;;;;;5124803;28;19924;-65
2023/08/17 01:07:48;;;;;;;;;;;21.10;71.10;;;;;;5094525;28;19920;-65
2023/08/17 01:10:14;;;;;;;;;;;21.10;71.10;;;;;;5095456;28;19920;-66
2023/08/17 01:12:59;;;;;;;;;;;21.10;71.10;;;;;;5095423;28;19965;-65
2023/08/17 01:15:32;;;;;;;;;;;21.10;71.10;;;;;;5095258;28;19927;-66
2023/08/17 01:18:04;;;;;;;;;;;21.10;71.10;;;;;;5095539;28;20291;-65
2023/08/17 01:20:30;;;;;;;;;;;21.10;71.10;;;;;;5093929;28;19928;-65
2023/08/17 01:22:58;;;;;;;;;;;21.10;71.10;;;;;;5094284;28;19920;-71
2023/08/17 01:25:24;;;;;;;;;;;21.00;71.00;;;;;;5095114;28;19920;-65
2023/08/17 01:27:49;;;;;;;;;;;21.00;71.00;;;;;;5095591;28;20436;-66
2023/08/17 01:30:16;;;;;;;;;;;21.00;71.00;;;;;;5095158;28;19920;-65
2023/08/17 01:32:47;;;;;;;;;;;21.00;71.00;;;;;;5095103;28;19958;-71
2023/08/17 01:37:57;;;;;;;;;;;21.00;71.20;;;;;;5130739;27;19918;-65
2023/08/17 01:40:22;;;;;;;;;;;21.00;71.00;;;;;;5129401;28;19926;-65
2023/08/17 01:42:49;;;;;;;;;;;21.00;70.90;;;;;;5129392;28;19920;-65
2023/08/17 01:45:15;;;;;;;;;;;21.00;70.90;;;;;;5130622;27;19923;-65
2023/08/17 01:47:40;;;;;;;;;;;21.00;71.00;;;;;;5129343;28;19930;-65
2023/08/17 01:50:06;;;;;;;;;;;21.00;70.90;;;;;;5129193;28;19924;-65
2023/08/17 01:52:31;;;;;;;;;;;21.00;71.00;;;;;;5129298;28;20031;-66
2023/08/17 01:54:57;;;;;;;;;;;21.00;70.90;;;;;;5130431;27;19962;-65
2023/08/17 01:57:22;;;;;;;;;;;21.00;70.90;;;;;;5129053;28;19923;-65
2023/08/17 01:59:48;;;;;;;;;;;21.00;70.90;;;;;;5129390;28;20015;-65
2023/08/17 02:02:14;;;;;;;;;;;21.00;70.90;;;;;;5121045;28;19965;-66
2023/08/17 02:04:40;;;;;;;;;;;21.00;70.90;;;;;;5108510;28;19924;-65
2023/08/17 02:07:05;;;;;;;;;;;21.00;70.90;;;;;;5108358;28;19954;-65
2023/08/17 02:09:31;;;;;;;;;;;21.00;70.90;;;;;;5109616;28;19920;-65
2023/08/17 02:11:56;;;;;;;;;;;20.90;70.80;;;;;;5109551;28;19923;-65
2023/08/17 02:14:22;;;;;;;;;;;21.00;70.90;;;;;;5108319;28;19924;-66
2023/08/17 02:16:47;;;;;;;;;;;21.00;70.90;;;;;;5109408;28;20331;-65
2023/08/17 02:19:13;;;;;;;;;;;21.00;70.90;;;;;;5109590;28;19920;-70
2023/08/17 02:21:38;;;;;;;;;;;21.00;70.90;;;;;;5108444;28;19920;-66
2023/08/17 02:24:04;;;;;;;;;;;20.90;70.80;;;;;;5108152;28;20010;-65
2023/08/17 02:26:29;;;;;;;;;;;20.90;70.80;;;;;;5109213;28;19927;-65
2023/08/17 02:28:55;;;;;;;;;;;20.90;70.90;;;;;;5109539;28;20389;-65
2023/08/17 02:31:20;;;;;;;;;;;20.90;70.80;;;;;;5108208;28;19920;-65
2023/08/17 02:33:46;;;;;;;;;;;20.90;70.80;;;;;;5107966;28;19927;-65
2023/08/17 02:36:11;;;;;;;;;;;20.90;70.80;;;;;;5107626;28;19928;-65
2023/08/17 02:38:37;;;;;;;;;;;20.90;70.80;;;;;;5108970;28;19927;-65
2023/08/17 02:41:02;;;;;;;;;;;20.90;71.50;;;;;;5108094;28;19920;-65
2023/08/17 02:43:28;;;;;;;;;;;21.00;70.80;;;;;;5107680;28;19972;-65
2023/08/17 02:45:53;;;;;;;;;;;20.90;70.80;;;;;;5107729;28;20275;-66
2023/08/17 02:48:19;;;;;;;;;;;20.90;70.80;;;;;;5099078;28;20010;-65
2023/08/17 02:50:44;;;;;;;;;;;20.90;70.80;;;;;;5095390;28;20291;-65
2023/08/17 02:53:10;;;;;;;;;;;20.90;70.80;;;;;;5095194;28;19928;-65
2023/08/17 02:55:35;;;;;;;;;;;20.90;70.80;;;;;;5094017;28;19923;-65
2023/08/17 02:58:01;;;;;;;;;;;20.90;70.80;;;;;;5095133;28;20341;-65
2023/08/17 03:00:26;;;;;;;;;;;20.90;70.80;;;;;;5094212;28;19920;-65
2023/08/17 03:02:53;;;;;;;;;;;20.90;70.80;;;;;;5095089;28;19920;-66
2023/08/17 03:05:19;;;;;;;;;;;20.90;70.80;;;;;;5094113;28;19954;-65
2023/08/17 03:07:44;;;;;;;;;;;20.90;70.80;;;;;;5093645;28;19920;-66
2023/08/17 03:10:10;;;;;;;;;;;20.90;70.80;;;;;;5095029;28;19952;-65
2023/08/17 03:12:37;;;;;;;;;;;20.90;70.80;;;;;;5094796;28;19979;-65
2023/08/17 03:15:03;;;;;;;;;;;20.90;70.80;;;;;;5093949;28;19979;-65
2023/08/17 03:17:28;;;;;;;;;;;20.90;70.80;;;;;;5093523;28;19928;-70
2023/08/17 03:19:54;;;;;;;;;;;20.90;70.80;;;;;;5093813;28;20264;-71
2023/08/17 03:22:19;;;;;;;;;;;20.80;70.70;;;;;;5093779;28;19921;-65
2023/08/17 03:24:45;;;;;;;;;;;20.90;70.80;;;;;;5093357;28;20385;-65
2023/08/17 03:27:10;;;;;;;;;;;20.90;71.50;;;;;;5093294;28;20089;-66
2023/08/17 03:29:36;;;;;;;;;;;20.90;70.70;;;;;;5094779;28;19920;-71
2023/08/17 03:32:01;;;;;;;;;;;20.80;70.70;;;;;;5093254;28;19927;-65
2023/08/17 03:34:27;;;;;;;;;;;20.90;70.70;;;;;;5094405;28;19972;-65
2023/08/17 03:36:52;;;;;;;;;;;20.90;70.70;;;;;;5093049;28;19924;-65
2023/08/17 03:39:17;;;;;;;;;;;20.90;70.70;;;;;;5092978;28;19978;-71
2023/08/17 03:41:43;;;;;;;;;;;20.80;70.60;;;;;;5093366;28;19932;-70
2023/08/17 03:44:09;;;;;;;;;;;20.90;70.70;;;;;;5092943;28;20025;-66
2023/08/17 03:46:35;;;;;;;;;;;20.90;70.70;;;;;;5093399;28;20030;-70
2023/08/17 03:49:00;;;;;;;;;;;20.80;70.60;;;;;;5093134;28;19959;-65
2023/08/17 03:51:26;;;;;;;;;;;20.90;70.70;;;;;;5094279;28;19939;-70
2023/08/17 03:53:52;;;;;;;;;;;20.90;70.70;;;;;;5094164;28;19920;-65
2023/08/17 03:56:17;;;;;;;;;;;20.80;70.70;;;;;;5092878;28;20402;-65
2023/08/17 03:58:43;;;;;;;;;;;20.80;70.70;;;;;;5092463;28;19928;-65
2023/08/17 04:01:11;;;;;;;;;;;20.80;70.70;;;;;;5092248;28;20282;-65
2023/08/17 04:03:36;;;;;;;;;;;20.80;70.70;;;;;;5112032;28;19924;-66
2023/08/17 04:06:06;;;;;;;;;;;20.80;70.70;;;;;;5113236;28;19972;-70
2023/08/17 04:08:31;;;;;;;;;;;20.80;71.40;;;;;;5112996;28;19919;-66
2023/08/17 04:10:57;;;;;;;;;;;20.90;70.70;;;;;;5113382;28;19946;-65
2023/08/17 04:13:22;;;;;;;;;;;20.80;70.60;;;;;;5113998;28;19920;-70
2023/08/17 04:15:48;;;;;;;;;;;20.80;70.70;;;;;;5112693;28;20089;-66
2023/08/17 04:18:13;;;;;;;;;;;20.80;70.70;;;;;;5113002;28;19993;-65
2023/08/17 04:20:39;;;;;;;;;;;20.80;70.70;;;;;;5113924;28;19919;-65
2023/08/17 04:23:04;;;;;;;;;;;20.80;70.70;;;;;;5112987;28;19920;-65
2023/08/17 04:25:30;;;;;;;;;;;20.80;70.70;;;;;;5112866;28;20375;-65
2023/08/17 04:27:55;;;;;;;;;;;20.80;70.70;;;;;;5113762;28;19981;-65
2023/08/17 04:30:21;;;;;;;;;;;20.80;70.70;;;;;;5095505;28;19970;-65
2023/08/17 04:32:52;;;;;;;;;;;20.80;70.70;;;;;;5112466;28;19920;-65
2023/08/17 04:35:17;;;;;;;;;;;20.80;70.70;;;;;;5113895;28;20176;-65
2023/08/17 04:37:43;;;;;;;;;;;20.80;70.70;;;;;;5112119;28;20006;-65
2023/08/17 04:40:09;;;;;;;;;;;20.80;70.70;;;;;;5112351;28;19928;-65
2023/08/17 04:42:35;;;;;;;;;;;20.80;70.70;;;;;;5113480;28;19926;-65
2023/08/17 04:45:01;;;;;;;;;;;20.80;70.70;;;;;;5112253;28;19919;-66
2023/08/17 04:47:26;;;;;;;;;;;20.80;70.70;;;;;;5112204;28;19919;-71
2023/08/17 04:49:52;;;;;;;;;;;20.80;70.80;;;;;;5112529;28;20278;-65
2023/08/17 04:52:17;;;;;;;;;;;20.80;70.70;;;;;;5112047;28;19926;-65
2023/08/17 04:54:43;;;;;;;;;;;20.80;70.70;;;;;;5112503;28;19943;-65
2023/08/17 04:57:08;;;;;;;;;;;20.80;70.70;;;;;;5111982;28;19928;-66
2023/08/17 04:59:34;;;;;;;;;;;20.80;70.70;;;;;;5113239;28;19920;-66
2023/08/17 05:01:59;;;;;;;;;;;20.80;70.70;;;;;;5106028;28;19927;-65
2023/08/17 05:04:24;;;;;;;;;;;20.80;70.70;;;;;;5092891;28;20018;-66
2023/08/17 05:06:50;;;;;;;;;;;20.80;70.80;;;;;;5091571;28;20015;-65
2023/08/17 05:09:15;;;;;;;;;;;20.80;70.80;;;;;;5091864;28;20291;-66
2023/08/17 05:11:41;;;;;;;;;;;20.70;70.70;;;;;;5091492;28;19946;-70
2023/08/17 05:14:06;;;;;;;;;;;20.70;70.70;;;;;;5092725;28;19930;-65
2023/08/17 05:16:32;;;;;;;;;;;20.70;70.70;;;;;;5091349;28;19975;-65
2023/08/17 05:18:59;;;;;;;;;;;20.70;70.70;;;;;;5092995;28;19920;-65
2023/08/17 05:21:25;;;;;;;;;;;20.70;70.70;;;;;;5092832;28;19920;-65
2023/08/17 05:23:50;;;;;;;;;;;20.70;70.70;;;;;;5091271;28;19947;-66
2023/08/17 05:26:16;;;;;;;;;;;20.80;70.80;;;;;;5091333;28;20306;-65
2023/08/17 05:28:42;;;;;;;;;;;20.80;70.80;;;;;;5091489;28;20345;-65
2023/08/17 05:31:08;;;;;;;;;;;20.70;70.70;;;;;;5092481;28;19942;-66
2023/08/17 05:33:33;;;;;;;;;;;20.70;70.70;;;;;;5092277;28;20031;-65
2023/08/17 05:35:59;;;;;;;;;;;20.70;70.70;;;;;;5091143;28;19928;-65
2023/08/17 05:38:25;;;;;;;;;;;20.80;70.80;;;;;;5074304;28;19978;-65
2023/08/17 05:40:54;;;;;;;;;;;20.80;70.80;;;;;;5091127;28;19927;-65
2023/08/17 05:43:19;;;;;;;;;;;20.70;70.70;;;;;;5092372;28;19920;-65
2023/08/17 05:45:45;;;;;;;;;;;20.70;70.70;;;;;;5091350;28;19920;-65
2023/08/17 05:48:10;;;;;;;;;;;20.70;70.70;;;;;;5091341;28;20452;-65
2023/08/17 05:50:36;;;;;;;;;;;20.70;70.70;;;;;;5091301;28;19924;-65
2023/08/17 05:53:01;;;;;;;;;;;20.70;70.70;;;;;;5090901;28;20382;-65
2023/08/17 05:55:27;;;;;;;;;;;20.70;70.70;;;;;;5092364;28;20025;-65
2023/08/17 05:57:52;;;;;;;;;;;20.70;70.70;;;;;;5090934;28;19993;-65
2023/08/17 06:00:18;;;;;;;;;;;20.70;70.70;;;;;;5091161;28;19921;-65
2023/08/17 06:02:49;;;;;;;;;;;20.70;70.70;;;;;;5103996;28;19990;-65
2023/08/17 06:05:15;;;;;;;;;;;20.70;70.80;;;;;;5112694;28;19920;-65
2023/08/17 06:07:40;;;;;;;;;;;20.70;70.80;;;;;;5111173;28;20393;-65
2023/08/17 06:10:06;;;;;;;;;;;20.70;70.70;;;;;;5112455;28;19924;-65
2023/08/17 06:12:32;;;;;;;;;;;20.70;70.70;;;;;;5111473;28;19919;-65
2023/08/17 06:14:57;;;;;;;;;;;20.70;70.70;;;;;;5111397;28;19929;-71
2023/08/17 06:17:23;;;;;;;;;;;20.70;70.70;;;;;;5111077;28;20439;-65
2023/08/17 06:19:48;;;;;;;;;;;20.70;70.70;;;;;;5112484;28;19926;-65
2023/08/17 06:22:14;;;;;;;;;;;20.70;70.70;;;;;;5111136;28;19951;-65
2023/08/17 06:24:39;;;;;;;;;;;20.70;70.70;;;;;;5116129;28;19971;-65
2023/08/17 06:27:05;;;;;;;;;;;20.70;70.70;;;;;;5114917;28;19965;-66
2023/08/17 06:29:30;;;;;;;;;;;20.70;70.80;;;;;;5116029;28;19920;-65
2023/08/17 06:31:55;;;;;;;;;;;20.70;70.80;;;;;;5115049;28;19924;-65
2023/08/17 06:34:21;;;;;;;;;;;20.70;70.80;;;;;;5114738;28;19919;-65
2023/08/17 06:36:56;;;;;;;;;;;20.70;70.80;;;;;;5115738;28;19923;-65
2023/08/17 06:39:22;;;;;;;;;;;20.70;70.70;;;;;;5115897;28;20002;-65
2023/08/17 06:41:48;;;;;;;;;;;20.70;70.80;;;;;;5114875;28;20015;-65
2023/08/17 06:44:13;;;;;;;;;;;20.70;70.80;;;;;;5114572;28;20367;-70
2023/08/17 06:46:39;;;;;;;;;;;20.70;70.70;;;;;;5114465;28;19926;-65
2023/08/17 06:49:04;;;;;;;;;;;20.70;70.70;;;;;;5116092;28;19923;-65
2023/08/17 06:51:29;;;;;;;;;;;20.70;70.80;;;;;;5115871;28;19963;-65
2023/08/17 06:53:55;;;;;;;;;;;20.70;70.70;;;;;;5114754;28;19920;-65
2023/08/17 06:56:22;;;;;;;;;;;20.70;70.70;;;;;;5114454;28;19923;-65
2023/08/17 06:58:48;;;;;;;;;;;20.70;70.80;;;;;;5114343;28;20015;-65
2023/08/17 07:01:14;;;;;;;;;;;20.70;70.70;;;;;;5115483;28;20010;-66
2023/08/17 07:03:40;;;;;;;;;;;20.70;70.70;;;;;;5094280;28;20422;-65
2023/08/17 07:06:05;;;;;;;;;;;20.70;70.70;;;;;;5093822;28;20023;-65
2023/08/17 07:08:32;;;;;;;;;;;20.70;70.70;;;;;;5094118;28;19920;-65
2023/08/17 07:10:58;;;;;;;;;;;20.70;70.70;;;;;;5095329;28;19927;-65
2023/08/17 07:13:23;;;;;;;;;;;20.70;71.40;;;;;;5093686;28;19920;-65
2023/08/17 07:15:49;;;;;;;;;;;20.70;70.70;;;;;;5093456;28;19986;-65
2023/08/17 07:18:14;;;;;;;;;;;20.70;70.70;;;;;;5094850;28;20268;-65
2023/08/17 07:20:40;;;;;;;;;;;20.70;70.60;;;;;;5095044;28;19920;-65
2023/08/17 07:23:05;;;;;;;;;;;20.70;70.60;;;;;;5093720;28;20386;-65
2023/08/17 07:25:32;;;;;;;;;;;20.70;70.60;;;;;;5093518;28;19954;-65
2023/08/17 07:27:57;;;;;;;;;;;20.70;70.60;;;;;;5093599;28;20015;-65
2023/08/17 07:30:23;;;;;;;;;;;20.70;70.60;;;;;;5094696;28;20057;-65
2023/08/17 07:32:48;;;;;;;;;;;20.70;70.60;;;;;;5093520;28;20383;-65
2023/08/17 07:35:14;;;;;;;;;;;20.70;71.30;;;;;;5093195;28;19920;-65
2023/08/17 07:37:39;;;;;;;;;;;20.80;70.60;;;;;;5090704;28;19950;-65
2023/08/17 07:40:05;;;;;;;;;;;20.70;70.50;;;;;;5094546;28;20371;-65
2023/08/17 07:42:31;;;;;;;;;;;20.70;70.50;;;;;;5094486;28;20303;-65
2023/08/17 07:44:56;;;;;;;;;;;20.70;70.50;;;;;;5094450;28;19978;-65
2023/08/17 07:47:22;;;;;;;;;;;20.70;70.50;;;;;;5093265;28;19934;-65
2023/08/17 07:49:47;;;;;;;;;;;20.70;70.50;;;;;;5093267;28;19920;-65
2023/08/17 07:52:13;;;;;;;;;;;20.80;70.50;;;;;;5093164;28;19946;-65
2023/08/17 07:54:38;;;;;;;;;;;20.70;70.40;;;;;;5092953;28;20005;-65
2023/08/17 07:57:04;;;;;;;;;;;20.80;70.50;;;;;;5092683;28;19924;-65
2023/08/17 07:59:29;;;;;;;;;;;20.70;70.50;;;;;;5093126;28;20396;-65
2023/08/17 08:01:55;;;;;;;;;;;20.70;70.40;;;;;;5092759;28;19926;-65
2023/08/17 08:04:21;;;;;;;;;;;20.70;70.40;;;;;;5092872;28;19949;-65
2023/08/17 08:06:46;;;;;;;;;;;20.70;70.40;;;;;;5092642;28;19920;-65
2023/08/17 08:09:12;;;;;;;;;;;20.70;70.40;;;;;;5092831;28;19920;-65
2023/08/17 08:11:37;;;;;;;;;;;20.70;70.40;;;;;;5093832;28;19920;-65
2023/08/17 08:14:03;;;;;;;;;;;20.80;70.50;;;;;;5092516;28;20414;-65
2023/08/17 08:16:30;;;;;;;;;;;20.80;70.50;;;;;;5093745;28;19982;-65
2023/08/17 08:18:56;;;;;;;;;;;20.80;70.50;;;;;;5092340;28;19959;-65
2023/08/17 08:21:21;;;;;;;;;;;20.80;70.50;;;;;;5092717;28;19990;-70
2023/08/17 08:23:47;;;;;;;;;;;20.80;70.50;;;;;;5092253;28;20007;-65
2023/08/17 08:26:12;;;;;;;;;;;20.70;70.40;;;;;;5093842;28;19920;-65
2023/08/17 08:28:38;;;;;;;;;;;20.70;70.40;;;;;;5093516;28;19920;-65
2023/08/17 08:31:03;;;;;;;;;;;20.80;70.40;;;;;;5092678;28;19973;-65
2023/08/17 08:33:29;;;;;;;;;;;20.80;70.50;;;;;;5092145;28;19920;-65
2023/08/17 08:35:54;;;;;;;;;;;20.80;70.50;;;;;;5093032;28;19920;-65
2023/08/17 08:38:20;;;;;;;;;;;20.70;70.40;;;;;;5091976;28;19928;-65
2023/08/17 08:40:47;;;;;;;;;;;20.80;70.40;;;;;;5091994;28;19931;-70
2023/08/17 08:43:12;;;;;;;;;;;20.80;70.40;;;;;;5093231;28;19920;-65
2023/08/17 08:45:41;;;;;;;;;;;20.80;70.40;;;;;;5091632;28;19920;-66
2023/08/17 08:48:07;;;;;;;;;;;20.80;70.40;;;;;;5091933;28;19924;-65
2023/08/17 08:50:35;;;;;;;;;;;20.80;70.30;;;;;;5092995;28;19920;-65
2023/08/17 08:53:02;;;;;;;;;;;20.80;70.40;;;;;;5092127;28;20410;-65
2023/08/17 08:55:29;;;;;;;;;;;20.80;70.40;;;;;;5092936;28;19928;-65
2023/08/17 08:57:55;;;;;;;;;;;20.80;70.40;;;;;;5091698;28;19923;-65
2023/08/17 09:00:21;;;;;;;;;;;20.80;70.50;;;;;;5091617;28;19924;-66
2023/08/17 09:02:48;;;;;;;;;;;20.80;70.50;;;;;;5104299;28;19963;-66
2023/08/17 09:05:14;;;;;;;;;;;20.80;70.50;;;;;;5112074;28;20330;-65
2023/08/17 09:07:40;;;;;;;;;;;20.80;70.50;;;;;;5112182;28;20336;-65
2023/08/17 09:10:06;;;;;;;;;;;20.80;70.50;;;;;;5112104;28;20371;-65
2023/08/17 09:12:35;;;;;;;;;;;20.80;70.50;;;;;;5111824;28;20061;-71
2023/08/17 09:15:00;;;;;;;;;;;20.80;70.50;;;;;;5113044;28;19920;-65
2023/08/17 09:17:26;;;;;;;;;;;20.70;70.40;;;;;;5111647;28;20386;-66
2023/08/17 09:19:52;;;;;;;;;;;20.80;70.50;;;;;;5111610;28;20006;-66
2023/08/17 09:22:25;;;;;;;;;;;20.70;70.40;;;;;;5112066;28;20377;-65
2023/08/17 09:24:51;;;;;;;;;;;20.70;70.40;;;;;;5111617;28;19920;-65
2023/08/17 09:27:17;;;;;;;;;;;20.80;70.50;;;;;;5112994;28;19927;-65
2023/08/17 09:29:43;;;;;;;;;;;20.80;70.50;;;;;;5111887;28;19926;-65
2023/08/17 09:32:10;;;;;;;;;;;20.70;70.40;;;;;;5109954;28;19920;-65
2023/08/17 09:34:35;;;;;;;;;;;20.70;70.50;;;;;;5092417;28;19934;-65
2023/08/17 09:37:02;;;;;;;;;;;20.80;70.50;;;;;;5090925;28;19928;-71
2023/08/17 09:39:28;;;;;;;;;;;20.70;70.50;;;;;;5092552;28;19920;-66
2023/08/17 09:41:54;;;;;;;;;;;20.80;70.50;;;;;;5092459;28;19981;-65
2023/08/17 09:44:20;;;;;;;;;;;20.80;70.50;;;;;;5091389;28;19919;-65
2023/08/17 09:46:46;;;;;;;;;;;20.70;70.40;;;;;;5091308;28;19924;-65
2023/08/17 09:49:11;;;;;;;;;;;20.80;70.50;;;;;;5092430;28;19920;-65
2023/08/17 09:51:37;;;;;;;;;;;20.70;70.40;;;;;;5091009;28;19919;-65
2023/08/17 09:54:02;;;;;;;;;;;20.80;70.50;;;;;;5091171;28;20006;-65
2023/08/17 09:56:28;;;;;;;;;;;20.80;70.50;;;;;;5092062;28;19931;-66
2023/08/17 09:58:54;;;;;;;;;;;20.70;70.40;;;;;;5094119;28;19921;-65
2023/08/17 10:01:21;;;;;;;;;;;20.70;70.50;;;;;;5095345;28;20378;-65
2023/08/17 10:03:49;;;;;;;;;;;20.80;70.50;;;;;;5115432;28;20396;-66
2023/08/17 10:06:20;;;;;;;;;;;20.70;70.50;;;;;;5115782;28;20369;-65
2023/08/17 10:08:49;;;;;;;;;;;20.70;70.50;;;;;;5115351;28;19927;-65
2023/08/17 10:11:16;;;;;;;;;;;20.70;70.50;;;;;;5115746;28;20294;-65
2023/08/17 10:13:47;;;;;;;;;;;20.70;70.50;;;;;;5115486;28;19942;-65
2023/08/17 10:19:13;;;;;;;;;;;20.70;70.40;;;;;;5130834;27;19915;-65
2023/08/17 10:21:44;;;;;;;;;;;20.70;70.40;;;;;;5130872;27;20310;-65
2023/08/17 10:24:10;;;;;;;;;;;20.70;70.50;;;;;;5129744;28;19923;-65
2023/08/17 10:26:36;;;;;;;;;;;20.70;70.50;;;;;;5129417;28;19920;-65
2023/08/17 10:29:02;;;;;;;;;;;20.80;70.60;;;;;;5129570;28;19969;-70
2023/08/17 10:31:28;;;;;;;;;;;20.70;70.50;;;;;;5129549;28;20014;-65
2023/08/17 10:33:54;;;;;;;;;;;20.70;70.50;;;;;;5129176;28;19926;-65
2023/08/17 10:36:20;;;;;;;;;;;20.70;70.50;;;;;;5130493;27;19923;-65
2023/08/17 10:38:46;;;;;;;;;;;20.70;70.50;;;;;;5128914;28;19969;-65
2023/08/17 10:41:12;;;;;;;;;;;20.70;70.50;;;;;;5130479;28;19920;-65
2023/08/17 10:43:53;;;;;;;;;;;20.70;70.60;;;;;;5130300;28;19927;-66
2023/08/17 10:46:18;;;;;;;;;;;20.80;70.60;;;;;;5130309;27;19945;-65
2023/08/17 10:48:44;;;;;;;;;;;20.70;70.50;;;;;;5128878;28;20003;-66
2023/08/17 10:51:13;;;;;;;;;;;20.70;70.60;;;;;;5130337;27;20335;-65
2023/08/17 10:53:42;;;;;;;;;;;20.80;70.60;;;;;;5128367;28;19926;-65
2023/08/17 10:56:11;;;;;;;;;;;20.70;70.60;;;;;;5130105;27;19923;-65
2023/08/17 10:58:36;;;;;;;;;;;20.80;70.60;;;;;;5129895;27;19924;-65
2023/08/17 11:01:02;;;;;;;;;;;20.70;70.50;;;;;;5129960;27;19927;-65
2023/08/17 11:03:28;;;;;;;;;;;20.70;70.50;;;;;;5128874;28;19960;-66
2023/08/17 11:05:56;;;;;;;;;;;20.70;70.50;;;;;;5130136;27;19923;-66
2023/08/17 11:08:22;;;;;;;;;;;20.70;70.50;;;;;;5128793;28;19920;-65
2023/08/17 11:11:07;;;;;;;;;;;20.70;70.50;;;;;;5128641;28;20006;-65
2023/08/17 11:13:34;;;;;;;;;;;20.70;70.50;;;;;;5128624;28;19931;-65
2023/08/17 11:16:00;;;;;;;;;;;20.70;70.50;;;;;;5128436;28;19974;-65
2023/08/17 11:18:26;;;;;;;;;;;20.70;70.50;;;;;;5128152;28;19976;-65
2023/08/17 11:20:52;;;;;;;;;;;20.70;70.60;;;;;;5128635;28;19919;-65
2023/08/17 11:23:18;;;;;;;;;;;20.80;70.60;;;;;;5129728;27;19920;-65
2023/08/17 11:25:44;;;;;;;;;;;20.70;70.50;;;;;;5128275;28;20378;-65
2023/08/17 11:28:09;;;;;;;;;;;20.80;70.60;;;;;;5128264;28;19971;-66
2023/08/17 11:30:38;;;;;;;;;;;20.80;70.80;;;;;;5114108;28;19919;-65
2023/08/17 11:33:04;;;;;;;;;;;20.80;70.60;;;;;;5114471;28;20417;-65
2023/08/17 11:35:29;;;;;;;;;;;20.80;70.60;;;;;;5114375;28;19923;-65
2023/08/17 11:37:55;;;;;;;;;;;20.80;70.60;;;;;;5114477;28;19938;-66
2023/08/17 11:40:20;;;;;;;;;;;20.80;70.60;;;;;;5115471;28;20306;-65
2023/08/17 11:42:46;;;;;;;;;;;20.80;70.60;;;;;;5115442;28;19923;-65
2023/08/17 11:45:12;;;;;;;;;;;20.80;70.60;;;;;;5114158;28;19930;-66
2023/08/17 11:47:38;;;;;;;;;;;20.80;70.70;;;;;;5114486;28;19920;-71
2023/08/17 11:50:05;;;;;;;;;;;20.80;70.70;;;;;;5114617;28;19927;-71
2023/08/17 11:52:36;;;;;;;;;;;20.80;70.80;;;;;;5115360;28;19990;-66
2023/08/17 11:55:02;;;;;;;;;;;20.80;70.70;;;;;;5114206;28;19920;-65
2023/08/17 11:57:29;;;;;;;;;;;20.80;70.80;;;;;;5113806;28;19924;-65
2023/08/17 11:59:55;;;;;;;;;;;20.80;70.80;;;;;;5114221;28;19919;-65
2023/08/17 12:02:22;;;;;;;;;;;20.80;70.80;;;;;;5113760;28;19920;-65
2023/08/17 12:04:47;;;;;;;;;;;20.80;70.80;;;;;;5114225;28;19965;-65
2023/08/17 12:07:13;;;;;;;;;;;20.80;70.80;;;;;;5114983;28;19924;-65
2023/08/17 12:09:39;;;;;;;;;;;20.80;70.90;;;;;;5115077;28;20022;-65
2023/08/17 12:12:05;;;;;;;;;;;20.80;71.00;;;;;;5114892;28;19920;-65
2023/08/17 12:14:30;;;;;;;;;;;20.80;71.00;;;;;;5113759;28;20346;-65
2023/08/17 12:16:56;;;;;;;;;;;20.80;70.90;;;;;;5114476;28;19924;-65
2023/08/17 12:19:24;;;;;;;;;;;20.80;70.90;;;;;;5114791;28;19919;-65
2023/08/17 12:21:50;;;;;;;;;;;20.80;71.00;;;;;;5114608;28;19924;-65
2023/08/17 12:24:16;;;;;;;;;;;20.80;71.00;;;;;;5114815;28;19965;-66
2023/08/17 12:26:43;;;;;;;;;;;20.80;70.90;;;;;;5113606;28;19923;-65
2023/08/17 12:29:08;;;;;;;;;;;20.80;70.90;;;;;;5114625;28;19930;-65
2023/08/17 12:31:34;;;;;;;;;;;20.80;70.90;;;;;;5114667;28;20006;-65
2023/08/17 12:34:00;;;;;;;;;;;20.80;71.00;;;;;;5114529;28;20011;-65
2023/08/17 12:36:25;;;;;;;;;;;20.80;71.10;;;;;;5114594;28;19919;-65
2023/08/17 12:38:51;;;;;;;;;;;20.80;71.30;;;;;;5113075;28;20413;-65
2023/08/17 12:41:17;;;;;;;;;;;20.80;71.20;;;;;;5112395;28;19982;-65
2023/08/17 12:43:43;;;;;;;;;;;20.80;71.20;;;;;;5112993;28;20511;-66
2023/08/17 12:46:08;;;;;;;;;;;20.80;71.20;;;;;;5113326;28;19964;-65
2023/08/17 12:48:34;;;;;;;;;;;20.80;71.20;;;;;;5113196;28;20392;-65
2023/08/17 12:50:59;;;;;;;;;;;20.80;71.30;;;;;;5112887;28;19928;-65
2023/08/17 12:53:25;;;;;;;;;;;20.80;71.30;;;;;;5112875;28;19962;-66
2023/08/17 12:55:50;;;;;;;;;;;20.80;71.30;;;;;;5114156;28;19978;-66
2023/08/17 12:58:15;;;;;;;;;;;20.80;71.30;;;;;;5112708;28;20375;-65
2023/08/17 13:00:41;;;;;;;;;;;20.80;71.30;;;;;;5113056;28;19920;-66
2023/08/17 13:03:07;;;;;;;;;;;20.80;71.20;;;;;;5113803;28;20026;-65
2023/08/17 13:05:33;;;;;;;;;;;20.80;71.20;;;;;;5113989;28;19920;-66
2023/08/17 13:07:58;;;;;;;;;;;20.80;71.20;;;;;;5113806;28;19919;-65
2023/08/17 13:10:24;;;;;;;;;;;20.80;71.20;;;;;;5112901;28;19920;-65
2023/08/17 13:12:54;;;;;;;;;;;20.80;71.30;;;;;;5113791;28;19923;-66
2023/08/17 13:15:20;;;;;;;;;;;20.80;71.20;;;;;;5114225;28;19927;-66
2023/08/17 13:17:45;;;;;;;;;;;20.80;71.20;;;;;;5112131;28;19924;-65
2023/08/17 13:20:11;;;;;;;;;;;20.80;71.20;;;;;;5112286;28;20039;-65
2023/08/17 13:22:36;;;;;;;;;;;20.80;71.20;;;;;;5112306;28;19924;-65
2023/08/17 13:25:02;;;;;;;;;;;20.80;71.30;;;;;;5112568;28;19919;-65
2023/08/17 13:27:27;;;;;;;;;;;20.80;71.30;;;;;;5112282;28;19927;-66
2023/08/17 13:29:53;;;;;;;;;;;20.80;71.40;;;;;;5112428;28;19923;-65
2023/08/17 13:32:18;;;;;;;;;;;20.80;71.40;;;;;;5113422;28;19964;-65
2023/08/17 13:34:44;;;;;;;;;;;20.80;71.40;;;;;;5112039;28;19964;-66
2023/08/17 13:37:09;;;;;;;;;;;20.90;71.40;;;;;;5112074;28;20041;-65
2023/08/17 13:39:34;;;;;;;;;;;20.80;71.40;;;;;;5113292;28;19926;-65
2023/08/17 13:42:00;;;;;;;;;;;20.80;71.40;;;;;;5112256;28;19924;-65
2023/08/17 13:44:25;;;;;;;;;;;20.80;71.40;;;;;;5112144;28;20379;-65
2023/08/17 13:46:51;;;;;;;;;;;20.80;71.50;;;;;;5111877;28;19963;-65
2023/08/17 13:49:16;;;;;;;;;;;20.80;71.50;;;;;;5113115;28;20323;-65
2023/08/17 13:51:42;;;;;;;;;;;20.90;71.60;;;;;;5111523;28;19920;-65
2023/08/17 13:54:07;;;;;;;;;;;20.80;71.50;;;;;;5111928;28;19945;-65
2023/08/17 13:56:33;;;;;;;;;;;20.80;71.60;;;;;;5112033;28;19974;-65
2023/08/17 13:58:58;;;;;;;;;;;20.80;71.60;;;;;;5111626;28;19923;-65
2023/08/17 14:01:24;;;;;;;;;;;20.80;71.60;;;;;;5111855;28;20420;-66
2023/08/17 14:03:49;;;;;;;;;;;20.80;71.60;;;;;;5111681;28;19920;-65
2023/08/17 14:06:15;;;;;;;;;;;20.90;71.60;;;;;;5113100;28;19926;-66
2023/08/17 14:08:41;;;;;;;;;;;20.80;71.60;;;;;;5112101;28;19920;-66
2023/08/17 14:11:07;;;;;;;;;;;20.90;71.70;;;;;;5111899;28;19920;-65
2023/08/17 14:13:34;;;;;;;;;;;20.90;71.70;;;;;;5112908;28;19920;-65
2023/08/17 14:15:59;;;;;;;;;;;20.90;71.70;;;;;;5111718;28;19923;-65